Aerbrava English version Versión de Aerbrava en Español Versió en Català d'Aerbrava
curve curve
Friday, 23 de March de 2018
01:18 UTC
Sunrise: 05:49
Sunset: 18:01



This section shows the meteorological information that is used in the practice of students in the pilot school at our center during training, so it may not be current and should be used at your own risk. AERBRAVA is not responsible for its use.


Servei Meteorològic de Catalunya
LEGE 230100Z 27001KT CAVOK 01/M02 Q1011
LEGE 230030Z 00000KT CAVOK 01/M01 Q1012
LEGE 230000Z VRB01KT CAVOK 02/M01 Q1012
LEGE 222330Z 19002KT CAVOK 02/00 Q1012
TAF LEGE 222300Z 2300/2324 VRB04KT CAVOK TX17/2313Z TN02/2306Z
BECMG 2310/2312 17012KT
TEMPO 2310/2318 17012G24KT
BECMG 2318/2320 32005KT
National Weather service
logo About us | Site map | Privacy | Contact | ©2015 AERBRAVA, SCP